Time,TemperatureF,DewpointF,PressureIn,WindDirection,WindDirectionDegrees,WindSpeedMPH,WindSpeedGustMPH,Humidity,HourlyPrecipIn,Conditions,Clouds,dailyrainin,SoftwareType,DateUTC
2013-01-03 00:03:00,29.2,27.2,30.20,ENE,68,2.9,2.9,92,0.00,,,0.00,WUHU216HW,2013-01-03 08:03:00,
2013-01-03 00:08:00,29.2,27.2,30.20,ENE,68,3.4,3.4,92,0.00,,,0.00,WUHU216HW,2013-01-03 08:08:00,
2013-01-03 00:13:00,29.0,27.0,30.19,ENE,68,1.8,3.4,92,0.00,,,0.00,WUHU216HW,2013-01-03 08:13:00,
2013-01-03 00:18:00,28.8,26.8,30.19,ENE,68,2.9,3.4,92,0.00,,,0.00,WUHU216HW,2013-01-03 08:18:00,
2013-01-03 00:23:00,28.8,26.8,30.19,ENE,68,2.0,3.1,92,0.00,,,0.00,WUHU216HW,2013-01-03 08:23:00,
2013-01-03 00:28:00,29.0,27.0,30.19,ENE,68,2.9,3.8,92,0.00,,,0.00,WUHU216HW,2013-01-03 08:28:00,
2013-01-03 00:33:00,29.0,27.0,30.19,ENE,68,1.8,3.8,92,0.00,,,0.00,WUHU216HW,2013-01-03 08:33:00,
2013-01-03 00:38:00,29.0,27.0,30.19,ENE,68,4.7,4.7,92,0.00,,,0.00,WUHU216HW,2013-01-03 08:38:00,
2013-01-03 00:43:00,28.8,26.8,30.19,ENE,68,2.2,4.7,92,0.00,,,0.00,WUHU216HW,2013-01-03 08:43:00,
2013-01-03 00:48:00,28.8,26.8,30.19,ENE,68,2.2,4.3,92,0.00,,,0.00,WUHU216HW,2013-01-03 08:48:00,
2013-01-03 01:05:00,29.0,27.0,30.19,ENE,68,2.9,4.7,92,0.00,,,0.00,WUHU216HW,2013-01-03 09:05:00,
2013-01-03 01:10:00,29.5,27.7,30.19,ENE,68,2.5,4.7,93,0.00,,,0.00,WUHU216HW,2013-01-03 09:10:00,
2013-01-03 01:15:00,29.9,28.1,30.19,ENE,68,3.1,4.0,93,0.00,,,0.00,WUHU216HW,2013-01-03 09:15:00,
2013-01-03 01:20:00,30.6,28.8,30.19,ENE,68,0.2,4.5,93,0.00,,,0.00,WUHU216HW,2013-01-03 09:20:00,
2013-01-03 01:25:00,31.1,29.3,30.19,ENE,68,0.2,4.5,93,0.00,,,0.00,WUHU216HW,2013-01-03 09:25:00,
2013-01-03 01:30:00,31.1,29.2,30.19,ENE,68,0.0,0.7,92,0.00,,,0.00,WUHU216HW,2013-01-03 09:30:00,
2013-01-03 01:35:00,30.6,28.6,30.19,ENE,68,1.8,2.2,92,0.00,,,0.00,WUHU216HW,2013-01-03 09:35:00,
2013-01-03 01:40:00,30.1,28.1,30.19,ENE,68,2.5,3.8,92,0.00,,,0.00,WUHU216HW,2013-01-03 09:40:00,
2013-01-03 01:45:00,29.9,27.9,30.19,ENE,68,1.8,3.8,92,0.00,,,0.00,WUHU216HW,2013-01-03 09:45:00,
2013-01-03 01:50:00,29.9,27.9,30.19,ENE,68,4.3,4.5,92,0.00,,,0.00,WUHU216HW,2013-01-03 09:50:00,
2013-01-03 01:55:00,29.7,27.7,30.19,ENE,68,3.1,4.7,92,0.00,,,0.00,WUHU216HW,2013-01-03 09:55:00,
2013-01-03 02:01:00,29.5,27.6,30.19,ENE,68,1.1,4.7,92,0.00,,,0.00,WUHU216HW,2013-01-03 10:01:00,
2013-01-03 02:06:00,29.9,27.9,30.19,ENE,68,1.8,2.2,92,0.00,,,0.00,WUHU216HW,2013-01-03 10:06:00,
2013-01-03 02:11:00,29.9,27.9,30.19,ENE,68,2.5,3.4,92,0.00,,,0.00,WUHU216HW,2013-01-03 10:11:00,
2013-01-03 02:16:00,29.7,27.7,30.19,ENE,68,1.6,3.4,92,0.00,,,0.00,WUHU216HW,2013-01-03 10:16:00,
2013-01-03 02:21:00,29.5,27.6,30.19,ENE,68,3.4,3.4,92,0.00,,,0.00,WUHU216HW,2013-01-03 10:21:00,
2013-01-03 02:26:00,29.2,27.2,30.19,ENE,68,3.1,4.0,92,0.00,,,0.00,WUHU216HW,2013-01-03 10:26:00,
2013-01-03 02:31:00,29.2,27.2,30.19,ENE,68,2.5,4.0,92,0.00,,,0.00,WUHU216HW,2013-01-03 10:31:00,
2013-01-03 02:36:00,29.2,27.2,30.19,ENE,68,2.2,3.4,92,0.00,,,0.00,WUHU216HW,2013-01-03 10:36:00,
2013-01-03 02:41:00,29.5,27.6,30.19,ENE,68,1.3,3.4,92,0.00,,,0.00,WUHU216HW,2013-01-03 10:41:00,
2013-01-03 02:46:00,29.5,27.6,30.19,ENE,68,3.1,3.4,92,0.00,,,0.00,WUHU216HW,2013-01-03 10:46:00,
2013-01-03 02:51:00,29.2,27.2,30.19,ENE,68,3.1,3.4,92,0.00,,,0.00,WUHU216HW,2013-01-03 10:51:00,
2013-01-03 02:56:00,29.0,27.0,30.19,ENE,68,3.4,3.4,92,0.00,,,0.00,WUHU216HW,2013-01-03 10:56:00,
2013-01-03 03:01:00,29.0,27.2,30.19,ENE,68,1.8,3.4,93,0.00,,,0.00,WUHU216HW,2013-01-03 11:01:00,
2013-01-03 03:06:00,29.2,27.4,30.19,ENE,68,2.7,3.4,93,0.00,,,0.00,WUHU216HW,2013-01-03 11:06:00,
2013-01-03 03:11:00,29.2,27.4,30.19,ENE,68,2.9,4.5,93,0.00,,,0.00,WUHU216HW,2013-01-03 11:11:00,
2013-01-03 03:16:00,28.8,27.0,30.18,ENE,68,3.4,4.5,93,0.00,,,0.00,WUHU216HW,2013-01-03 11:16:00,
2013-01-03 03:21:00,28.6,26.8,30.18,ENE,68,2.0,4.0,93,0.00,,,0.00,WUHU216HW,2013-01-03 11:21:00,
2013-01-03 03:26:00,28.4,26.6,30.18,ENE,68,2.5,4.0,93,0.00,,,0.00,WUHU216HW,2013-01-03 11:26:00,
2013-01-03 03:31:00,28.6,26.8,30.18,ENE,68,1.8,3.1,93,0.00,,,0.00,WUHU216HW,2013-01-03 11:31:00,
2013-01-03 03:36:00,28.4,26.5,30.17,ENE,68,2.0,2.0,92,0.00,,,0.00,WUHU216HW,2013-01-03 11:36:00,
2013-01-03 03:41:00,28.4,26.5,30.17,ENE,68,4.0,4.0,92,0.00,,,0.00,WUHU216HW,2013-01-03 11:41:00,
2013-01-03 03:46:00,28.4,26.5,30.16,ENE,68,2.2,4.0,92,0.00,,,0.00,WUHU216HW,2013-01-03 11:46:00,
2013-01-03 03:51:00,28.4,26.6,30.16,ENE,68,2.9,3.8,93,0.00,,,0.00,WUHU216HW,2013-01-03 11:51:00,
2013-01-03 03:56:00,28.6,26.8,30.16,ENE,68,4.7,4.7,93,0.00,,,0.00,WUHU216HW,2013-01-03 11:56:00,
2013-01-03 04:01:00,28.4,26.6,30.17,ENE,68,3.8,4.7,93,0.00,,,0.00,WUHU216HW,2013-01-03 12:01:00,
2013-01-03 04:06:00,28.3,26.5,30.16,ENE,68,4.3,5.1,93,0.00,,,0.00,WUHU216HW,2013-01-03 12:06:00,
2013-01-03 04:11:00,28.1,26.3,30.16,ENE,68,2.5,5.1,93,0.00,,,0.00,WUHU216HW,2013-01-03 12:11:00,
2013-01-03 04:16:00,28.1,26.3,30.16,ENE,68,1.8,4.3,93,0.00,,,0.00,WUHU216HW,2013-01-03 12:16:00,
2013-01-03 04:21:00,28.1,26.3,30.16,ENE,68,2.2,2.7,93,0.00,,,0.00,WUHU216HW,2013-01-03 12:21:00,
2013-01-03 04:26:00,28.1,26.3,30.16,ENE,68,2.2,2.2,93,0.00,,,0.00,WUHU216HW,2013-01-03 12:26:00,
2013-01-03 04:54:00,27.9,26.1,30.15,ENE,68,4.0,4.0,93,0.00,,,0.00,WUHU216HW,2013-01-03 12:54:00,
2013-01-03 04:59:00,27.9,26.1,30.15,ENE,68,4.0,4.0,93,0.00,,,0.00,WUHU216HW,2013-01-03 12:59:00,
2013-01-03 05:04:00,28.1,26.3,30.15,ENE,68,4.7,4.7,93,0.00,,,0.00,WUHU216HW,2013-01-03 13:04:00,
2013-01-03 05:09:00,28.4,26.6,30.14,ENE,68,3.4,4.9,93,0.00,,,0.00,WUHU216HW,2013-01-03 13:09:00,
2013-01-03 05:14:00,28.6,26.8,30.15,ENE,68,2.0,4.9,93,0.00,,,0.00,WUHU216HW,2013-01-03 13:14:00,
2013-01-03 05:19:00,29.0,27.2,30.14,ENE,68,3.4,4.0,93,0.00,,,0.00,WUHU216HW,2013-01-03 13:19:00,
2013-01-03 05:24:00,29.0,27.2,30.14,ENE,68,2.5,4.0,93,0.00,,,0.00,WUHU216HW,2013-01-03 13:24:00,
2013-01-03 05:29:00,29.0,27.2,30.14,ENE,68,2.9,3.4,93,0.00,,,0.00,WUHU216HW,2013-01-03 13:29:00,
2013-01-03 05:34:00,28.6,26.7,30.14,ENE,68,4.0,4.7,92,0.00,,,0.00,WUHU216HW,2013-01-03 13:34:00,
2013-01-03 05:39:00,28.4,26.5,30.14,ENE,68,2.0,4.7,92,0.00,,,0.00,WUHU216HW,2013-01-03 13:39:00,
2013-01-03 05:44:00,28.4,26.6,30.14,ENE,68,2.5,4.0,93,0.00,,,0.00,WUHU216HW,2013-01-03 13:44:00,
2013-01-03 05:49:00,28.4,26.5,30.14,ENE,68,0.7,3.4,92,0.00,,,0.00,WUHU216HW,2013-01-03 13:49:00,
2013-01-03 05:54:00,28.3,26.3,30.13,ENE,68,3.6,3.6,92,0.00,,,0.00,WUHU216HW,2013-01-03 13:54:00,
2013-01-03 05:59:00,28.1,26.3,30.13,ENE,68,2.2,3.6,93,0.00,,,0.00,WUHU216HW,2013-01-03 13:59:00,
2013-01-03 06:04:00,27.9,25.9,30.13,ENE,68,1.3,3.4,92,0.00,,,0.00,WUHU216HW,2013-01-03 14:04:00,
2013-01-03 06:09:00,27.9,26.1,30.13,ENE,68,2.0,2.5,93,0.00,,,0.00,WUHU216HW,2013-01-03 14:09:00,
2013-01-03 06:14:00,27.7,25.9,30.13,ENE,68,2.2,2.5,93,0.00,,,0.00,WUHU216HW,2013-01-03 14:14:00,
2013-01-03 06:19:00,27.7,25.9,30.13,ENE,68,2.5,2.9,93,0.00,,,0.00,WUHU216HW,2013-01-03 14:19:00,
2013-01-03 06:24:00,27.9,26.1,30.13,ENE,68,1.3,2.9,93,0.00,,,0.00,WUHU216HW,2013-01-03 14:24:00,
2013-01-03 06:29:00,27.7,25.9,30.12,ENE,68,2.2,2.7,93,0.00,,,0.00,WUHU216HW,2013-01-03 14:29:00,
2013-01-03 06:34:00,27.7,25.9,30.13,ENE,68,2.7,3.6,93,0.00,,,0.00,WUHU216HW,2013-01-03 14:34:00,
2013-01-03 06:39:00,27.5,25.7,30.13,ENE,68,1.1,3.6,93,0.00,,,0.00,WUHU216HW,2013-01-03 14:39:00,
2013-01-03 06:44:00,27.5,25.7,30.13,ENE,68,1.6,1.8,93,0.00,,,0.00,WUHU216HW,2013-01-03 14:44:00,
2013-01-03 06:49:00,27.4,25.4,30.13,ENE,68,2.5,2.5,92,0.00,,,0.00,WUHU216HW,2013-01-03 14:49:00,
2013-01-03 06:54:00,27.4,25.6,30.13,ENE,68,1.8,2.7,93,0.00,,,0.00,WUHU216HW,2013-01-03 14:54:00,
2013-01-03 06:59:00,27.5,25.7,30.13,ENE,68,2.5,2.9,93,0.00,,,0.00,WUHU216HW,2013-01-03 14:59:00,
2013-01-03 07:04:00,27.4,25.6,30.13,ENE,68,1.8,3.6,93,0.00,,,0.00,WUHU216HW,2013-01-03 15:04:00,
2013-01-03 07:09:00,27.5,25.7,30.13,ENE,68,3.4,3.8,93,0.00,,,0.00,WUHU216HW,2013-01-03 15:09:00,
2013-01-03 07:14:00,27.5,25.7,30.13,ENE,68,2.5,3.8,93,0.00,,,0.00,WUHU216HW,2013-01-03 15:14:00,
2013-01-03 07:19:00,27.4,25.6,30.13,ENE,68,2.0,3.4,93,0.00,,,0.00,WUHU216HW,2013-01-03 15:19:00,
2013-01-03 07:24:00,27.4,25.6,30.12,ENE,68,3.8,3.8,93,0.00,,,0.00,WUHU216HW,2013-01-03 15:24:00,
2013-01-03 07:29:00,27.4,25.6,30.12,ENE,68,3.6,4.3,93,0.00,,,0.00,WUHU216HW,2013-01-03 15:29:00,
2013-01-03 07:34:00,27.2,25.4,30.12,ENE,68,1.8,4.3,93,0.00,,,0.00,WUHU216HW,2013-01-03 15:34:00,
2013-01-03 07:39:00,27.0,25.2,30.12,ENE,68,3.1,3.1,93,0.00,,,0.00,WUHU216HW,2013-01-03 15:39:00,
2013-01-03 07:44:00,27.2,25.4,30.12,ENE,68,1.6,3.4,93,0.00,,,0.00,WUHU216HW,2013-01-03 15:44:00,
2013-01-03 07:49:00,27.2,25.4,30.11,ENE,68,1.6,3.4,93,0.00,,,0.00,WUHU216HW,2013-01-03 15:49:00,
2013-01-03 07:54:00,27.2,25.4,30.11,ENE,68,2.9,2.9,93,0.00,,,0.00,WUHU216HW,2013-01-03 15:54:00,
2013-01-03 07:59:00,27.2,25.4,30.12,ENE,68,2.0,2.9,93,0.00,,,0.00,WUHU216HW,2013-01-03 15:59:00,
2013-01-03 08:04:00,27.2,25.4,30.12,ENE,68,4.9,4.9,93,0.00,,,0.00,WUHU216HW,2013-01-03 16:04:00,
2013-01-03 08:09:00,27.2,25.4,30.12,ENE,68,2.7,4.9,93,0.00,,,0.00,WUHU216HW,2013-01-03 16:09:00,
2013-01-03 08:14:00,27.2,25.4,30.12,ENE,68,3.6,3.8,93,0.00,,,0.00,WUHU216HW,2013-01-03 16:14:00,
2013-01-03 08:19:00,27.2,25.4,30.12,ENE,68,2.9,3.6,93,0.00,,,0.00,WUHU216HW,2013-01-03 16:19:00,
2013-01-03 08:24:00,27.2,25.4,30.12,ENE,68,0.9,3.4,93,0.00,,,0.00,WUHU216HW,2013-01-03 16:24:00,
2013-01-03 08:29:00,27.2,25.4,30.12,ENE,68,1.1,2.2,93,0.00,,,0.00,WUHU216HW,2013-01-03 16:29:00,
2013-01-03 08:34:00,26.6,24.7,30.11,ENE,68,4.5,4.5,92,0.00,,,0.00,WUHU216HW,2013-01-03 16:34:00,
2013-01-03 08:39:00,26.6,24.7,30.11,ENE,68,2.7,4.5,92,0.00,,,0.00,WUHU216HW,2013-01-03 16:39:00,
2013-01-03 08:44:00,27.0,25.2,30.12,ENE,68,1.1,3.6,93,0.00,,,0.00,WUHU216HW,2013-01-03 16:44:00,
2013-01-03 08:49:00,27.2,25.4,30.12,ENE,68,2.5,2.5,93,0.00,,,0.00,WUHU216HW,2013-01-03 16:49:00,
2013-01-03 08:54:00,27.2,25.4,30.12,ENE,68,1.3,2.5,93,0.00,,,0.00,WUHU216HW,2013-01-03 16:54:00,
2013-01-03 08:59:00,27.0,25.2,30.12,ENE,68,3.6,3.6,93,0.00,,,0.00,WUHU216HW,2013-01-03 16:59:00,
2013-01-03 09:05:00,27.0,25.2,30.12,ENE,68,2.5,3.6,93,0.00,,,0.00,WUHU216HW,2013-01-03 17:05:00,
2013-01-03 09:10:00,27.2,25.4,30.12,ENE,68,1.1,3.4,93,0.00,,,0.00,WUHU216HW,2013-01-03 17:10:00,
2013-01-03 09:15:00,27.4,25.6,30.13,ENE,68,4.7,4.7,93,0.00,,,0.00,WUHU216HW,2013-01-03 17:15:00,
2013-01-03 09:20:00,27.7,25.9,30.12,ENE,68,1.3,4.7,93,0.00,,,0.00,WUHU216HW,2013-01-03 17:20:00,
2013-01-03 09:25:00,27.9,26.1,30.12,ENE,68,2.7,3.4,93,0.00,,,0.00,WUHU216HW,2013-01-03 17:25:00,
2013-01-03 09:30:00,27.9,26.1,30.12,ENE,68,3.4,4.0,93,0.00,,,0.00,WUHU216HW,2013-01-03 17:30:00,
2013-01-03 09:35:00,28.1,26.3,30.13,ENE,68,3.6,4.5,93,0.00,,,0.00,WUHU216HW,2013-01-03 17:35:00,
2013-01-03 09:40:00,28.3,26.5,30.13,ENE,68,2.9,4.5,93,0.00,,,0.00,WUHU216HW,2013-01-03 17:40:00,
2013-01-03 09:45:00,28.6,26.8,30.13,ENE,68,0.2,3.4,93,0.00,,,0.00,WUHU216HW,2013-01-03 17:45:00,
2013-01-03 09:50:00,29.2,27.4,30.13,ENE,68,0.0,1.8,93,0.00,,,0.00,WUHU216HW,2013-01-03 17:50:00,
2013-01-03 09:55:00,29.3,27.5,30.13,ENE,68,3.4,3.4,93,0.00,,,0.00,WUHU216HW,2013-01-03 17:55:00,
2013-01-03 10:00:00,29.5,27.7,30.13,ENE,68,1.8,3.4,93,0.00,,,0.00,WUHU216HW,2013-01-03 18:00:00,
2013-01-03 10:05:00,30.1,28.3,30.13,ENE,68,1.8,3.1,93,0.00,,,0.00,WUHU216HW,2013-01-03 18:05:00,
2013-01-03 10:10:00,30.2,28.4,30.14,East,90,0.4,3.1,93,0.00,,,0.00,WUHU216HW,2013-01-03 18:10:00,
2013-01-03 10:15:00,30.6,28.8,30.14,East,90,1.3,1.8,93,0.00,,,0.00,WUHU216HW,2013-01-03 18:15:00,
2013-01-03 10:20:00,31.0,29.2,30.14,East,90,1.1,1.3,93,0.00,,,0.00,WUHU216HW,2013-01-03 18:20:00,
2013-01-03 10:25:00,31.5,29.7,30.14,ENE,68,2.0,2.0,93,0.00,,,0.00,WUHU216HW,2013-01-03 18:25:00,
2013-01-03 10:30:00,32.0,30.2,30.13,ENE,68,1.1,2.0,93,0.00,,,0.00,WUHU216HW,2013-01-03 18:30:00,
2013-01-03 10:35:00,32.4,30.6,30.13,ENE,68,2.5,2.7,93,0.00,,,0.00,WUHU216HW,2013-01-03 18:35:00,
2013-01-03 10:40:00,32.9,31.2,30.13,WSW,248,1.8,4.7,93,0.00,,,0.00,WUHU216HW,2013-01-03 18:40:00,
2013-01-03 10:45:00,33.1,31.3,30.13,SE,135,1.1,4.7,93,0.00,,,0.00,WUHU216HW,2013-01-03 18:45:00,
2013-01-03 10:50:00,33.1,31.3,30.13,SE,135,1.1,1.1,93,0.00,,,0.00,WUHU216HW,2013-01-03 18:50:00,
2013-01-03 11:05:00,34.9,33.3,30.14,East,90,2.9,2.9,94,0.00,,,0.00,WUHU216HW,2013-01-03 19:05:00,
2013-01-03 11:10:00,35.3,33.4,30.13,East,90,1.1,2.9,93,0.00,,,0.00,WUHU216HW,2013-01-03 19:10:00,
2013-01-03 11:15:00,35.8,33.9,30.13,ENE,68,1.1,2.2,93,0.00,,,0.00,WUHU216HW,2013-01-03 19:15:00,
2013-01-03 11:57:00,37.8,35.1,30.13,WNW,293,1.6,3.4,90,0.00,,,0.00,WUHU216HW,2013-01-03 19:57:00,
2013-01-03 12:02:00,37.8,35.4,30.12,West,270,1.6,2.5,91,0.00,,,0.00,WUHU216HW,2013-01-03 20:02:00,
2013-01-03 12:07:00,38.0,35.3,30.12,WSW,248,0.0,1.8,90,0.00,,,0.00,WUHU216HW,2013-01-03 20:07:00,
2013-01-03 12:12:00,38.0,35.3,30.12,East,90,0.9,2.9,90,0.00,,,0.00,WUHU216HW,2013-01-03 20:12:00,
2013-01-03 12:17:00,38.3,35.4,30.12,SE,135,0.4,2.9,89,0.00,,,0.00,WUHU216HW,2013-01-03 20:17:00,
2013-01-03 12:22:00,38.3,35.1,30.11,ENE,68,3.6,3.6,88,0.00,,,0.00,WUHU216HW,2013-01-03 20:22:00,
2013-01-03 12:27:00,38.9,35.3,30.11,NW,315,0.9,3.6,87,0.00,,,0.00,WUHU216HW,2013-01-03 20:27:00,
2013-01-03 12:32:00,38.9,35.3,30.11,WSW,248,0.9,2.9,87,0.00,,,0.00,WUHU216HW,2013-01-03 20:32:00,
2013-01-03 12:37:00,39.1,35.5,30.11,WSW,248,1.1,2.9,87,0.00,,,0.00,WUHU216HW,2013-01-03 20:37:00,
2013-01-03 12:42:00,39.2,35.6,30.11,WSW,248,1.1,2.0,87,0.00,,,0.00,WUHU216HW,2013-01-03 20:42:00,
2013-01-03 12:47:00,39.2,35.4,30.11,WSW,248,2.5,2.7,86,0.00,,,0.00,WUHU216HW,2013-01-03 20:47:00,
2013-01-03 12:52:00,39.2,35.4,30.11,WSW,248,4.0,4.0,86,0.00,,,0.00,WUHU216HW,2013-01-03 20:52:00,
2013-01-03 12:57:00,39.4,35.0,30.11,WSW,248,2.2,6.9,84,0.00,,,0.00,WUHU216HW,2013-01-03 20:57:00,
2013-01-03 13:02:00,39.4,35.0,30.10,SE,135,2.9,6.9,84,0.00,,,0.00,WUHU216HW,2013-01-03 21:02:00,
2013-01-03 13:07:00,39.4,35.0,30.11,WSW,248,1.3,3.4,84,0.00,,,0.00,WUHU216HW,2013-01-03 21:07:00,
2013-01-03 13:12:00,39.4,34.7,30.11,SE,135,3.8,3.8,83,0.00,,,0.00,WUHU216HW,2013-01-03 21:12:00,
2013-01-03 13:17:00,39.6,34.6,30.11,South,180,0.7,3.8,82,0.00,,,0.00,WUHU216HW,2013-01-03 21:17:00,
2013-01-03 13:22:00,39.6,34.6,30.11,South,180,1.6,2.5,82,0.00,,,0.00,WUHU216HW,2013-01-03 21:22:00,
2013-01-03 13:27:00,39.6,34.3,30.11,SSE,158,3.8,3.8,81,0.00,,,0.00,WUHU216HW,2013-01-03 21:27:00,
2013-01-03 13:32:00,39.8,34.8,30.10,SW,225,0.7,3.8,82,0.00,,,0.00,WUHU216HW,2013-01-03 21:32:00,
2013-01-03 13:37:00,39.8,34.5,30.10,SSE,158,1.8,2.2,81,0.00,,,0.00,WUHU216HW,2013-01-03 21:37:00,
2013-01-03 13:42:00,39.8,34.5,30.10,East,90,1.1,2.0,81,0.00,,,0.00,WUHU216HW,2013-01-03 21:42:00,
2013-01-03 13:47:00,40.0,34.3,30.10,SSE,158,1.8,4.5,80,0.00,,,0.00,WUHU216HW,2013-01-03 21:47:00,
2013-01-03 13:52:00,40.0,34.3,30.11,ENE,68,2.5,4.5,80,0.00,,,0.00,WUHU216HW,2013-01-03 21:52:00,
2013-01-03 13:57:00,40.1,34.1,30.10,East,90,3.4,5.4,79,0.00,,,0.00,WUHU216HW,2013-01-03 21:57:00,
2013-01-03 14:02:00,40.3,33.7,30.10,NE,45,4.3,6.3,77,0.00,,,0.00,WUHU216HW,2013-01-03 22:02:00,
2013-01-03 14:07:00,40.3,33.7,30.10,NE,45,4.3,6.3,77,0.00,,,0.00,WUHU216HW,2013-01-03 22:07:00,
2013-01-03 14:36:00,39.8,33.1,30.10,ESE,113,1.3,2.7,77,0.00,,,0.00,WUHU216HW,2013-01-03 22:36:00,
2013-01-03 14:41:00,39.6,32.9,30.10,NE,45,0.4,2.2,77,0.00,,,0.00,WUHU216HW,2013-01-03 22:41:00,
2013-01-03 14:46:00,39.2,32.3,30.10,SE,135,4.7,4.7,76,0.00,,,0.00,WUHU216HW,2013-01-03 22:46:00,
2013-01-03 14:51:00,39.4,32.8,30.11,SSW,203,0.9,4.7,77,0.00,,,0.00,WUHU216HW,2013-01-03 22:51:00,
2013-01-03 14:56:00,39.4,32.8,30.11,SE,135,1.8,3.4,77,0.00,,,0.00,WUHU216HW,2013-01-03 22:56:00,
2013-01-03 15:01:00,39.2,32.7,30.10,SE,135,2.7,2.9,77,0.00,,,0.00,WUHU216HW,2013-01-03 23:01:00,
2013-01-03 15:06:00,39.2,32.7,30.10,NE,45,2.5,2.9,77,0.00,,,0.00,WUHU216HW,2013-01-03 23:06:00,
2013-01-03 15:11:00,39.1,32.5,30.10,NE,45,1.8,3.6,77,0.00,,,0.00,WUHU216HW,2013-01-03 23:11:00,
2013-01-03 15:16:00,38.7,32.1,30.10,SE,135,0.4,3.6,77,0.00,,,0.00,WUHU216HW,2013-01-03 23:16:00,
2013-01-03 15:21:00,38.3,31.8,30.10,North,0,0.0,2.7,77,0.00,,,0.00,WUHU216HW,2013-01-03 23:21:00,
2013-01-03 15:26:00,38.0,31.4,30.10,ENE,68,1.3,2.7,77,0.00,,,0.00,WUHU216HW,2013-01-03 23:26:00,
2013-01-03 15:32:00,37.4,31.2,30.10,NE,45,2.2,2.5,78,0.00,,,0.00,WUHU216HW,2013-01-03 23:32:00,
2013-01-03 15:37:00,37.1,30.9,30.09,NE,45,1.1,2.5,78,0.00,,,0.00,WUHU216HW,2013-01-03 23:37:00,
2013-01-03 15:42:00,36.7,30.8,30.09,ENE,68,2.5,2.5,79,0.01,,,0.01,WUHU216HW,2013-01-03 23:42:00,
2013-01-03 15:47:00,36.5,30.6,30.10,NE,45,0.9,5.4,79,0.01,,,0.01,WUHU216HW,2013-01-03 23:47:00,
2013-01-03 15:52:00,36.7,31.1,30.11,West,270,1.1,5.4,80,0.01,,,0.01,WUHU216HW,2013-01-03 23:52:00,
2013-01-03 15:57:00,36.7,31.1,30.11,West,270,0.0,1.1,80,0.01,,,0.01,WUHU216HW,2013-01-03 23:57:00,
2013-01-03 16:02:00,36.7,31.1,30.11,NNW,338,1.1,1.3,80,0.01,,,0.01,WUHU216HW,2013-01-04 00:02:00,
2013-01-03 16:07:00,36.7,31.1,30.12,NW,315,1.1,2.5,80,0.01,,,0.01,WUHU216HW,2013-01-04 00:07:00,
2013-01-03 16:12:00,36.7,31.1,30.12,NW,315,0.0,2.5,80,0.01,,,0.01,WUHU216HW,2013-01-04 00:12:00,
2013-01-03 16:17:00,36.5,31.0,30.12,ESE,113,1.3,2.5,80,0.01,,,0.01,WUHU216HW,2013-01-04 00:17:00,
2013-01-03 16:22:00,36.4,30.8,30.12,East,90,1.6,2.5,80,0.01,,,0.01,WUHU216HW,2013-01-04 00:22:00,
2013-01-03 16:27:00,36.0,30.4,30.12,ENE,68,2.5,3.1,80,0.01,,,0.01,WUHU216HW,2013-01-04 00:27:00,
2013-01-03 16:32:00,36.0,30.7,30.12,NE,45,1.3,3.1,81,0.01,,,0.01,WUHU216HW,2013-01-04 00:32:00,
2013-01-03 16:37:00,35.8,30.5,30.11,NE,45,1.8,4.7,81,0.00,,,0.01,WUHU216HW,2013-01-04 00:37:00,
2013-01-03 16:42:00,35.6,30.6,30.11,ENE,68,2.0,4.7,82,0.00,,,0.01,WUHU216HW,2013-01-04 00:42:00,
2013-01-03 16:47:00,35.6,30.6,30.11,ENE,68,3.1,3.1,82,0.00,,,0.01,WUHU216HW,2013-01-04 00:47:00,
2013-01-03 16:52:00,35.3,30.2,30.11,NE,45,1.8,3.4,82,0.00,,,0.01,WUHU216HW,2013-01-04 00:52:00,
2013-01-03 16:57:00,35.1,30.4,30.11,NNE,23,0.4,3.4,83,0.00,,,0.01,WUHU216HW,2013-01-04 00:57:00,
2013-01-03 17:02:00,35.3,30.6,30.11,North,0,0.9,2.5,83,0.00,,,0.01,WUHU216HW,2013-01-04 01:02:00,
2013-01-03 17:07:00,35.5,30.8,30.10,North,0,0.0,1.8,83,0.00,,,0.01,WUHU216HW,2013-01-04 01:07:00,
2013-01-03 17:12:00,35.5,30.8,30.10,ENE,68,1.1,1.8,83,0.00,,,0.01,WUHU216HW,2013-01-04 01:12:00,
2013-01-03 17:17:00,35.5,31.1,30.10,ENE,68,2.7,2.7,84,0.00,,,0.01,WUHU216HW,2013-01-04 01:17:00,
2013-01-03 17:22:00,35.3,30.9,30.11,ENE,68,2.0,2.9,84,0.00,,,0.01,WUHU216HW,2013-01-04 01:22:00,
2013-01-03 17:27:00,35.3,30.9,30.11,NE,45,0.0,2.9,84,0.00,,,0.01,WUHU216HW,2013-01-04 01:27:00,
2013-01-03 17:32:00,35.5,31.1,30.11,NE,45,1.3,2.5,84,0.00,,,0.01,WUHU216HW,2013-01-04 01:32:00,
2013-01-03 17:37:00,35.5,31.1,30.10,ENE,68,4.0,4.3,84,0.00,,,0.01,WUHU216HW,2013-01-04 01:37:00,
2013-01-03 17:42:00,35.3,30.9,30.10,ENE,68,2.5,4.3,84,0.00,,,0.01,WUHU216HW,2013-01-04 01:42:00,
2013-01-03 17:47:00,35.3,30.9,30.10,NE,45,3.6,3.8,84,0.00,,,0.01,WUHU216HW,2013-01-04 01:47:00,
2013-01-03 17:52:00,35.3,30.9,30.09,NNW,338,0.0,3.6,84,0.00,,,0.01,WUHU216HW,2013-01-04 01:52:00,
2013-01-03 17:57:00,35.5,31.1,30.09,ESE,113,1.8,2.2,84,0.00,,,0.01,WUHU216HW,2013-01-04 01:57:00,
2013-01-03 18:02:00,35.6,31.2,30.09,ENE,68,3.1,3.1,84,0.00,,,0.01,WUHU216HW,2013-01-04 02:02:00,
2013-01-03 18:07:00,35.8,31.4,30.09,NNE,23,2.5,3.1,84,0.00,,,0.01,WUHU216HW,2013-01-04 02:07:00,
2013-01-03 18:12:00,36.0,31.6,30.09,North,0,0.7,4.0,84,0.00,,,0.01,WUHU216HW,2013-01-04 02:12:00,
2013-01-03 18:17:00,36.4,32.0,30.09,SE,135,0.2,4.0,84,0.00,,,0.01,WUHU216HW,2013-01-04 02:17:00,
2013-01-03 18:22:00,36.5,32.1,30.09,North,0,0.9,1.8,84,0.00,,,0.01,WUHU216HW,2013-01-04 02:22:00,
2013-01-03 18:27:00,36.5,32.1,30.09,ENE,68,0.4,1.8,84,0.00,,,0.01,WUHU216HW,2013-01-04 02:27:00,
2013-01-03 18:32:00,36.7,32.1,30.09,NNW,338,2.5,3.8,83,0.00,,,0.01,WUHU216HW,2013-01-04 02:32:00,
2013-01-03 18:37:00,37.4,32.4,30.09,NNW,338,2.5,4.7,82,0.00,,,0.01,WUHU216HW,2013-01-04 02:37:00,
2013-01-03 18:42:00,37.8,32.8,30.09,NNW,338,3.4,4.7,82,0.00,,,0.01,WUHU216HW,2013-01-04 02:42:00,
2013-01-03 18:47:00,38.2,33.1,30.09,WNW,293,1.1,4.7,82,0.00,,,0.01,WUHU216HW,2013-01-04 02:47:00,
2013-01-03 18:52:00,38.3,33.3,30.09,SE,135,4.0,4.7,82,0.00,,,0.01,WUHU216HW,2013-01-04 02:52:00,
2013-01-03 18:57:00,38.3,33.3,30.11,SSW,203,0.4,4.0,82,0.00,,,0.01,WUHU216HW,2013-01-04 02:57:00,
2013-01-03 19:02:00,38.3,33.3,30.11,SW,225,0.4,3.4,82,0.00,,,0.01,WUHU216HW,2013-01-04 03:02:00,
2013-01-03 19:07:00,38.2,33.1,30.11,NE,45,1.8,1.8,82,0.00,,,0.01,WUHU216HW,2013-01-04 03:07:00,
2013-01-03 19:12:00,38.0,32.9,30.11,ENE,68,1.1,2.5,82,0.00,,,0.01,WUHU216HW,2013-01-04 03:12:00,
2013-01-03 19:17:00,38.0,32.9,30.11,ENE,68,1.1,2.5,82,0.00,,,0.01,WUHU216HW,2013-01-04 03:17:00,
2013-01-03 19:47:00,37.1,32.7,30.10,NE,45,0.9,0.9,84,0.00,,,0.01,WUHU216HW,2013-01-04 03:47:00,
2013-01-03 19:52:00,37.1,32.7,30.11,NNE,23,2.2,2.2,84,0.00,,,0.01,WUHU216HW,2013-01-04 03:52:00,
2013-01-03 19:57:00,37.1,32.7,30.10,NNE,23,1.8,2.7,84,0.00,,,0.01,WUHU216HW,2013-01-04 03:57:00,
2013-01-03 20:02:00,36.9,32.5,30.11,NE,45,0.7,2.7,84,0.00,,,0.01,WUHU216HW,2013-01-04 04:02:00,
2013-01-03 20:07:00,37.1,32.9,30.11,ENE,68,3.1,3.1,85,0.00,,,0.01,WUHU216HW,2013-01-04 04:07:00,
2013-01-03 20:12:00,37.1,32.9,30.11,ENE,68,1.8,4.7,85,0.00,,,0.01,WUHU216HW,2013-01-04 04:12:00,
2013-01-03 20:17:00,36.9,32.8,30.11,North,0,0.7,4.7,85,0.00,,,0.01,WUHU216HW,2013-01-04 04:17:00,
2013-01-03 20:22:00,36.9,32.8,30.11,ENE,68,1.8,3.1,85,0.00,,,0.01,WUHU216HW,2013-01-04 04:22:00,
2013-01-03 20:27:00,36.9,33.0,30.11,NNE,23,2.2,2.2,86,0.00,,,0.01,WUHU216HW,2013-01-04 04:27:00,
2013-01-03 20:32:00,36.7,32.9,30.11,NNE,23,3.1,4.3,86,0.00,,,0.01,WUHU216HW,2013-01-04 04:32:00,
2013-01-03 20:37:00,36.7,32.9,30.11,ENE,68,1.3,4.3,86,0.00,,,0.01,WUHU216HW,2013-01-04 04:37:00,
2013-01-03 20:42:00,36.7,32.9,30.11,ENE,68,1.1,1.3,86,0.00,,,0.01,WUHU216HW,2013-01-04 04:42:00,
2013-01-03 20:47:00,36.7,32.9,30.11,ENE,68,1.1,1.1,86,0.00,,,0.01,WUHU216HW,2013-01-04 04:47:00,
2013-01-03 21:05:00,37.3,33.4,30.10,NNE,23,0.0,1.8,86,0.01,,,0.02,WUHU216HW,2013-01-04 05:05:00,
2013-01-03 21:10:00,37.3,33.4,30.10,NW,315,1.8,1.8,86,0.01,,,0.02,WUHU216HW,2013-01-04 05:10:00,
2013-01-03 21:15:00,37.1,33.2,30.10,WNW,293,1.8,1.8,86,0.01,,,0.02,WUHU216HW,2013-01-04 05:15:00,
2013-01-03 21:20:00,37.4,33.6,30.10,NNW,338,0.7,4.7,86,0.01,,,0.02,WUHU216HW,2013-01-04 05:20:00,
2013-01-03 21:25:00,37.6,33.8,30.10,NW,315,3.8,4.7,86,0.01,,,0.02,WUHU216HW,2013-01-04 05:25:00,
2013-01-03 21:30:00,37.8,33.9,30.10,WNW,293,0.9,3.8,86,0.01,,,0.02,WUHU216HW,2013-01-04 05:30:00,
2013-01-03 21:35:00,38.0,34.1,30.10,North,0,3.6,3.6,86,0.01,,,0.02,WUHU216HW,2013-01-04 05:35:00,
2013-01-03 21:40:00,38.2,34.0,30.10,SW,225,0.9,3.6,85,0.01,,,0.02,WUHU216HW,2013-01-04 05:40:00,
2013-01-03 21:45:00,38.7,34.6,30.10,NNE,23,3.4,6.9,85,0.01,,,0.02,WUHU216HW,2013-01-04 05:45:00,
2013-01-03 21:50:00,39.1,34.7,30.10,ENE,68,5.1,7.4,84,0.01,,,0.02,WUHU216HW,2013-01-04 05:50:00,
2013-01-03 21:55:00,39.2,34.8,30.10,SE,135,4.0,7.4,84,0.01,,,0.02,WUHU216HW,2013-01-04 05:55:00,
2013-01-03 22:00:00,39.6,34.8,30.10,East,90,6.0,9.4,83,0.01,,,0.02,WUHU216HW,2013-01-04 06:00:00,
2013-01-03 22:05:00,39.8,35.0,30.11,SE,135,3.4,9.4,83,0.00,,,0.02,WUHU216HW,2013-01-04 06:05:00,
2013-01-03 22:10:00,39.8,35.0,30.11,ESE,113,9.8,9.8,83,0.00,,,0.02,WUHU216HW,2013-01-04 06:10:00,
2013-01-03 22:15:00,40.0,35.2,30.11,ESE,113,1.8,9.8,83,0.00,,,0.02,WUHU216HW,2013-01-04 06:15:00,
2013-01-03 22:20:00,40.0,35.2,30.11,ESE,113,4.0,7.6,83,0.00,,,0.02,WUHU216HW,2013-01-04 06:20:00,
2013-01-03 22:25:00,40.0,35.2,30.11,SSE,158,2.0,7.6,83,0.00,,,0.02,WUHU216HW,2013-01-04 06:25:00,
2013-01-03 22:30:00,40.0,35.2,30.12,SSW,203,2.2,4.9,83,0.00,,,0.02,WUHU216HW,2013-01-04 06:30:00,
2013-01-03 22:35:00,40.0,35.2,30.11,SE,135,6.0,6.0,83,0.00,,,0.02,WUHU216HW,2013-01-04 06:35:00,
2013-01-03 22:40:00,40.0,35.5,30.12,SE,135,4.9,7.2,84,0.00,,,0.02,WUHU216HW,2013-01-04 06:40:00,
2013-01-03 22:45:00,40.0,35.5,30.12,North,0,7.8,7.8,84,0.00,,,0.02,WUHU216HW,2013-01-04 06:45:00,
2013-01-03 22:50:00,40.0,35.5,30.11,SE,135,1.6,7.8,84,0.00,,,0.02,WUHU216HW,2013-01-04 06:50:00,
2013-01-03 22:55:00,40.0,35.5,30.12,SSE,158,4.0,5.4,84,0.00,,,0.02,WUHU216HW,2013-01-04 06:55:00,
2013-01-03 23:00:00,40.0,35.5,30.12,NE,45,1.1,4.0,84,0.00,,,0.02,WUHU216HW,2013-01-04 07:00:00,
2013-01-03 23:05:00,40.0,35.5,30.12,ENE,68,1.1,2.9,84,0.00,,,0.02,WUHU216HW,2013-01-04 07:05:00,
2013-01-03 23:10:00,40.0,35.5,30.12,ENE,68,2.0,4.7,84,0.00,,,0.02,WUHU216HW,2013-01-04 07:10:00,
2013-01-03 23:15:00,40.0,35.5,30.12,WSW,248,1.6,4.7,84,0.00,,,0.02,WUHU216HW,2013-01-04 07:15:00,
2013-01-03 23:20:00,40.0,35.5,30.12,NW,315,3.1,3.1,84,0.00,,,0.02,WUHU216HW,2013-01-04 07:20:00,
2013-01-03 23:25:00,40.0,35.5,30.12,NE,45,2.2,3.1,84,0.00,,,0.02,WUHU216HW,2013-01-04 07:25:00,
2013-01-03 23:30:00,40.0,35.5,30.12,ENE,68,3.8,4.0,84,0.00,,,0.02,WUHU216HW,2013-01-04 07:30:00,
2013-01-03 23:35:00,40.0,35.8,30.12,ESE,113,2.2,4.0,85,0.00,,,0.02,WUHU216HW,2013-01-04 07:35:00,
2013-01-03 23:40:00,40.1,35.9,30.12,SSE,158,5.4,5.4,85,0.00,,,0.02,WUHU216HW,2013-01-04 07:40:00,
2013-01-03 23:45:00,40.5,36.3,30.12,ENE,68,3.4,5.4,85,0.00,,,0.02,WUHU216HW,2013-01-04 07:45:00,
2013-01-03 23:50:00,40.7,36.5,30.12,NNW,338,1.8,3.4,85,0.00,,,0.02,WUHU216HW,2013-01-04 07:50:00,
2013-01-03 23:55:00,40.9,36.6,30.13,South,180,2.5,11.4,85,0.00,,,0.02,WUHU216HW,2013-01-04 07:55:00,